sensor_id;sensor_type;location;lat;lon;timestamp;P1;durP1;ratioP1;P2;durP2;ratioP2
75935;SDS011;64614;32.062;34.834;2023-08-08T00:00:23;3.42;;;2.70;;
75935;SDS011;64614;32.062;34.834;2023-08-08T00:02:48;3.10;;;2.58;;
75935;SDS011;64614;32.062;34.834;2023-08-08T00:05:14;4.18;;;2.70;;
75935;SDS011;64614;32.062;34.834;2023-08-08T00:07:40;3.58;;;2.30;;
75935;SDS011;64614;32.062;34.834;2023-08-08T00:10:05;3.55;;;2.67;;
75935;SDS011;64614;32.062;34.834;2023-08-08T00:12:31;3.45;;;2.60;;
75935;SDS011;64614;32.062;34.834;2023-08-08T00:14:57;3.78;;;2.65;;
75935;SDS011;64614;32.062;34.834;2023-08-08T00:17:23;3.35;;;2.30;;
75935;SDS011;64614;32.062;34.834;2023-08-08T00:19:48;3.35;;;2.80;;
75935;SDS011;64614;32.062;34.834;2023-08-08T00:22:14;3.45;;;2.65;;
75935;SDS011;64614;32.062;34.834;2023-08-08T00:24:40;3.70;;;2.85;;
75935;SDS011;64614;32.062;34.834;2023-08-08T00:27:05;4.30;;;2.70;;
75935;SDS011;64614;32.062;34.834;2023-08-08T00:29:31;2.88;;;2.40;;
75935;SDS011;64614;32.062;34.834;2023-08-08T00:31:57;3.90;;;2.83;;
75935;SDS011;64614;32.062;34.834;2023-08-08T00:34:22;3.97;;;2.65;;
75935;SDS011;64614;32.062;34.834;2023-08-08T00:36:48;3.28;;;2.50;;
75935;SDS011;64614;32.062;34.834;2023-08-08T00:39:13;4.25;;;2.50;;
75935;SDS011;64614;32.062;34.834;2023-08-08T00:41:39;3.38;;;2.42;;
75935;SDS011;64614;32.062;34.834;2023-08-08T00:44:05;3.42;;;2.50;;
75935;SDS011;64614;32.062;34.834;2023-08-08T00:46:30;4.13;;;2.72;;
75935;SDS011;64614;32.062;34.834;2023-08-08T00:48:57;3.85;;;2.60;;
75935;SDS011;64614;32.062;34.834;2023-08-08T00:51:22;3.63;;;2.53;;
75935;SDS011;64614;32.062;34.834;2023-08-08T00:53:49;2.95;;;2.38;;
75935;SDS011;64614;32.062;34.834;2023-08-08T00:56:15;4.38;;;2.60;;
75935;SDS011;64614;32.062;34.834;2023-08-08T00:58:42;3.83;;;2.38;;
75935;SDS011;64614;32.062;34.834;2023-08-08T01:03:36;3.80;;;2.42;;
75935;SDS011;64614;32.062;34.834;2023-08-08T01:06:03;3.15;;;2.30;;
75935;SDS011;64614;32.062;34.834;2023-08-08T01:11:43;3.63;;;2.50;;
75935;SDS011;64614;32.062;34.834;2023-08-08T01:14:13;3.20;;;2.42;;
75935;SDS011;64614;32.062;34.834;2023-08-08T01:16:40;4.38;;;2.90;;
75935;SDS011;64614;32.062;34.834;2023-08-08T01:19:07;3.22;;;2.45;;
75935;SDS011;64614;32.062;34.834;2023-08-08T01:21:36;2.92;;;2.38;;
75935;SDS011;64614;32.062;34.834;2023-08-08T01:24:22;3.85;;;2.58;;
75935;SDS011;64614;32.062;34.834;2023-08-08T01:26:50;3.85;;;2.50;;
75935;SDS011;64614;32.062;34.834;2023-08-08T01:29:16;4.00;;;2.75;;
75935;SDS011;64614;32.062;34.834;2023-08-08T01:31:42;3.65;;;2.40;;
75935;SDS011;64614;32.062;34.834;2023-08-08T01:34:07;2.85;;;2.30;;
75935;SDS011;64614;32.062;34.834;2023-08-08T01:36:45;4.38;;;2.67;;
75935;SDS011;64614;32.062;34.834;2023-08-08T01:39:17;3.72;;;2.60;;
75935;SDS011;64614;32.062;34.834;2023-08-08T01:41:47;3.30;;;2.45;;
75935;SDS011;64614;32.062;34.834;2023-08-08T01:44:13;3.65;;;2.40;;
75935;SDS011;64614;32.062;34.834;2023-08-08T01:46:40;3.47;;;2.72;;
75935;SDS011;64614;32.062;34.834;2023-08-08T01:49:06;3.58;;;2.60;;
75935;SDS011;64614;32.062;34.834;2023-08-08T01:51:32;3.80;;;2.65;;
75935;SDS011;64614;32.062;34.834;2023-08-08T01:53:57;4.68;;;2.80;;
75935;SDS011;64614;32.062;34.834;2023-08-08T01:56:23;4.47;;;2.85;;
75935;SDS011;64614;32.062;34.834;2023-08-08T01:58:48;4.00;;;2.60;;
75935;SDS011;64614;32.062;34.834;2023-08-08T02:01:14;4.25;;;2.40;;
75935;SDS011;64614;32.062;34.834;2023-08-08T02:03:40;3.03;;;2.30;;
75935;SDS011;64614;32.062;34.834;2023-08-08T02:06:05;4.13;;;2.67;;
75935;SDS011;64614;32.062;34.834;2023-08-08T02:08:31;4.15;;;3.00;;
75935;SDS011;64614;32.062;34.834;2023-08-08T02:10:56;4.07;;;2.47;;
75935;SDS011;64614;32.062;34.834;2023-08-08T02:13:22;4.35;;;2.75;;
75935;SDS011;64614;32.062;34.834;2023-08-08T02:15:48;4.25;;;2.70;;
75935;SDS011;64614;32.062;34.834;2023-08-08T02:18:13;4.13;;;2.58;;
75935;SDS011;64614;32.062;34.834;2023-08-08T02:20:39;4.72;;;2.70;;
75935;SDS011;64614;32.062;34.834;2023-08-08T02:23:05;3.13;;;2.30;;
75935;SDS011;64614;32.062;34.834;2023-08-08T02:25:30;4.00;;;2.47;;
75935;SDS011;64614;32.062;34.834;2023-08-08T02:27:56;3.80;;;2.53;;
75935;SDS011;64614;32.062;34.834;2023-08-08T02:30:22;3.63;;;2.50;;
75935;SDS011;64614;32.062;34.834;2023-08-08T02:32:48;3.70;;;2.47;;
75935;SDS011;64614;32.062;34.834;2023-08-08T02:35:13;3.78;;;2.47;;
75935;SDS011;64614;32.062;34.834;2023-08-08T02:37:39;3.25;;;2.15;;
75935;SDS011;64614;32.062;34.834;2023-08-08T02:40:06;3.97;;;2.65;;
75935;SDS011;64614;32.062;34.834;2023-08-08T02:42:33;3.25;;;2.50;;
75935;SDS011;64614;32.062;34.834;2023-08-08T02:44:58;4.03;;;2.50;;
75935;SDS011;64614;32.062;34.834;2023-08-08T02:47:24;3.75;;;2.50;;
75935;SDS011;64614;32.062;34.834;2023-08-08T02:49:50;3.97;;;2.42;;
75935;SDS011;64614;32.062;34.834;2023-08-08T02:52:15;4.25;;;2.58;;
75935;SDS011;64614;32.062;34.834;2023-08-08T02:54:41;4.30;;;2.42;;
75935;SDS011;64614;32.062;34.834;2023-08-08T02:57:07;3.45;;;2.70;;
75935;SDS011;64614;32.062;34.834;2023-08-08T03:02:01;3.40;;;2.28;;
75935;SDS011;64614;32.062;34.834;2023-08-08T03:04:26;3.33;;;2.33;;
75935;SDS011;64614;32.062;34.834;2023-08-08T03:06:52;3.90;;;2.42;;
75935;SDS011;64614;32.062;34.834;2023-08-08T03:09:17;4.10;;;2.53;;
75935;SDS011;64614;32.062;34.834;2023-08-08T03:11:43;4.72;;;2.85;;
75935;SDS011;64614;32.062;34.834;2023-08-08T03:14:09;3.83;;;2.22;;
75935;SDS011;64614;32.062;34.834;2023-08-08T03:16:34;5.00;;;2.70;;
75935;SDS011;64614;32.062;34.834;2023-08-08T03:19:00;5.13;;;2.45;;
75935;SDS011;64614;32.062;34.834;2023-08-08T03:21:25;3.58;;;2.20;;
75935;SDS011;64614;32.062;34.834;2023-08-08T03:23:51;3.97;;;2.22;;
75935;SDS011;64614;32.062;34.834;2023-08-08T03:26:17;4.32;;;2.30;;
75935;SDS011;64614;32.062;34.834;2023-08-08T03:28:42;4.00;;;2.38;;
75935;SDS011;64614;32.062;34.834;2023-08-08T03:31:08;2.78;;;2.17;;
75935;SDS011;64614;32.062;34.834;2023-08-08T03:33:34;3.85;;;2.53;;
75935;SDS011;64614;32.062;34.834;2023-08-08T03:35:59;4.18;;;2.78;;
75935;SDS011;64614;32.062;34.834;2023-08-08T03:38:25;4.35;;;2.55;;
75935;SDS011;64614;32.062;34.834;2023-08-08T03:40:50;3.40;;;2.35;;
75935;SDS011;64614;32.062;34.834;2023-08-08T03:43:16;3.47;;;2.33;;
75935;SDS011;64614;32.062;34.834;2023-08-08T03:45:42;3.95;;;2.40;;
75935;SDS011;64614;32.062;34.834;2023-08-08T03:48:10;3.67;;;2.47;;
75935;SDS011;64614;32.062;34.834;2023-08-08T03:50:36;4.00;;;2.70;;
75935;SDS011;64614;32.062;34.834;2023-08-08T03:53:02;4.28;;;2.47;;
75935;SDS011;64614;32.062;34.834;2023-08-08T03:55:27;3.22;;;2.40;;
75935;SDS011;64614;32.062;34.834;2023-08-08T03:57:54;3.60;;;2.45;;
75935;SDS011;64614;32.062;34.834;2023-08-08T04:00:20;3.38;;;2.45;;
75935;SDS011;64614;32.062;34.834;2023-08-08T04:02:48;4.25;;;2.30;;
75935;SDS011;64614;32.062;34.834;2023-08-08T04:05:13;3.67;;;2.38;;
75935;SDS011;64614;32.062;34.834;2023-08-08T04:07:39;4.22;;;2.47;;
75935;SDS011;64614;32.062;34.834;2023-08-08T04:10:05;3.80;;;2.50;;
75935;SDS011;64614;32.062;34.834;2023-08-08T04:12:31;3.88;;;2.63;;
75935;SDS011;64614;32.062;34.834;2023-08-08T04:14:57;4.03;;;2.40;;
75935;SDS011;64614;32.062;34.834;2023-08-08T04:17:23;3.50;;;2.33;;
75935;SDS011;64614;32.062;34.834;2023-08-08T04:19:49;3.33;;;2.17;;
75935;SDS011;64614;32.062;34.834;2023-08-08T04:22:15;3.60;;;2.28;;
75935;SDS011;64614;32.062;34.834;2023-08-08T04:24:41;4.25;;;2.50;;
75935;SDS011;64614;32.062;34.834;2023-08-08T04:27:07;3.92;;;2.47;;
75935;SDS011;64614;32.062;34.834;2023-08-08T04:29:33;4.22;;;2.80;;
75935;SDS011;64614;32.062;34.834;2023-08-08T04:31:59;3.67;;;2.35;;
75935;SDS011;64614;32.062;34.834;2023-08-08T04:34:25;4.63;;;2.58;;
75935;SDS011;64614;32.062;34.834;2023-08-08T04:36:50;4.03;;;2.47;;
75935;SDS011;64614;32.062;34.834;2023-08-08T04:39:16;4.65;;;2.30;;
75935;SDS011;64614;32.062;34.834;2023-08-08T04:41:41;4.93;;;2.47;;
75935;SDS011;64614;32.062;34.834;2023-08-08T04:44:07;3.97;;;2.40;;
75935;SDS011;64614;32.062;34.834;2023-08-08T04:46:33;4.65;;;2.90;;
75935;SDS011;64614;32.062;34.834;2023-08-08T04:48:58;4.40;;;2.90;;
75935;SDS011;64614;32.062;34.834;2023-08-08T04:51:24;4.38;;;2.85;;
75935;SDS011;64614;32.062;34.834;2023-08-08T04:53:49;3.97;;;2.70;;
75935;SDS011;64614;32.062;34.834;2023-08-08T04:56:15;5.20;;;2.85;;
75935;SDS011;64614;32.062;34.834;2023-08-08T04:58:41;5.05;;;2.60;;
75935;SDS011;64614;32.062;34.834;2023-08-08T05:01:06;4.50;;;2.42;;
75935;SDS011;64614;32.062;34.834;2023-08-08T05:03:36;4.38;;;2.50;;
75935;SDS011;64614;32.062;34.834;2023-08-08T05:06:02;3.72;;;2.55;;
75935;SDS011;64614;32.062;34.834;2023-08-08T05:08:28;4.70;;;2.83;;
75935;SDS011;64614;32.062;34.834;2023-08-08T05:10:54;3.70;;;2.30;;
75935;SDS011;64614;32.062;34.834;2023-08-08T05:13:19;4.22;;;2.67;;
75935;SDS011;64614;32.062;34.834;2023-08-08T05:15:45;4.95;;;2.83;;
75935;SDS011;64614;32.062;34.834;2023-08-08T05:18:11;4.35;;;3.03;;
75935;SDS011;64614;32.062;34.834;2023-08-08T05:20:36;4.03;;;2.58;;
75935;SDS011;64614;32.062;34.834;2023-08-08T05:23:02;3.78;;;2.70;;
75935;SDS011;64614;32.062;34.834;2023-08-08T05:25:28;4.40;;;2.72;;
75935;SDS011;64614;32.062;34.834;2023-08-08T05:27:53;4.85;;;3.00;;
75935;SDS011;64614;32.062;34.834;2023-08-08T05:30:19;4.03;;;2.65;;
75935;SDS011;64614;32.062;34.834;2023-08-08T05:32:44;4.25;;;2.80;;
75935;SDS011;64614;32.062;34.834;2023-08-08T05:35:10;6.00;;;2.67;;
75935;SDS011;64614;32.062;34.834;2023-08-08T05:37:36;4.68;;;2.60;;
75935;SDS011;64614;32.062;34.834;2023-08-08T05:40:01;4.28;;;2.80;;
75935;SDS011;64614;32.062;34.834;2023-08-08T05:42:28;4.00;;;2.55;;
75935;SDS011;64614;32.062;34.834;2023-08-08T05:44:54;3.97;;;2.67;;
75935;SDS011;64614;32.062;34.834;2023-08-08T05:47:20;3.75;;;2.55;;
75935;SDS011;64614;32.062;34.834;2023-08-08T05:49:45;4.45;;;2.67;;
75935;SDS011;64614;32.062;34.834;2023-08-08T05:52:11;4.57;;;2.88;;
75935;SDS011;64614;32.062;34.834;2023-08-08T05:54:37;4.90;;;3.40;;
75935;SDS011;64614;32.062;34.834;2023-08-08T05:57:02;4.35;;;2.90;;
75935;SDS011;64614;32.062;34.834;2023-08-08T05:59:28;4.90;;;2.90;;
75935;SDS011;64614;32.062;34.834;2023-08-08T06:01:54;4.95;;;2.72;;
75935;SDS011;64614;32.062;34.834;2023-08-08T06:04:19;4.57;;;2.65;;
75935;SDS011;64614;32.062;34.834;2023-08-08T06:06:45;4.10;;;2.58;;
75935;SDS011;64614;32.062;34.834;2023-08-08T06:09:14;4.30;;;2.70;;
75935;SDS011;64614;32.062;34.834;2023-08-08T06:11:40;4.25;;;2.92;;
75935;SDS011;64614;32.062;34.834;2023-08-08T06:14:05;5.18;;;2.85;;
75935;SDS011;64614;32.062;34.834;2023-08-08T06:16:31;4.30;;;2.83;;
75935;SDS011;64614;32.062;34.834;2023-08-08T06:18:57;4.75;;;2.70;;
75935;SDS011;64614;32.062;34.834;2023-08-08T06:21:22;5.75;;;2.85;;
75935;SDS011;64614;32.062;34.834;2023-08-08T06:23:48;4.05;;;2.83;;
75935;SDS011;64614;32.062;34.834;2023-08-08T06:26:14;4.82;;;2.90;;
75935;SDS011;64614;32.062;34.834;2023-08-08T06:28:40;4.15;;;2.60;;
75935;SDS011;64614;32.062;34.834;2023-08-08T06:31:05;4.18;;;2.72;;
75935;SDS011;64614;32.062;34.834;2023-08-08T06:33:31;4.57;;;2.67;;
75935;SDS011;64614;32.062;34.834;2023-08-08T06:35:56;4.82;;;2.67;;
75935;SDS011;64614;32.062;34.834;2023-08-08T06:38:22;4.30;;;2.53;;
75935;SDS011;64614;32.062;34.834;2023-08-08T06:40:48;4.60;;;2.60;;
75935;SDS011;64614;32.062;34.834;2023-08-08T06:43:14;3.85;;;2.42;;
75935;SDS011;64614;32.062;34.834;2023-08-08T06:45:40;3.92;;;2.80;;
75935;SDS011;64614;32.062;34.834;2023-08-08T06:48:05;4.40;;;2.72;;
75935;SDS011;64614;32.062;34.834;2023-08-08T06:50:31;4.53;;;2.80;;
75935;SDS011;64614;32.062;34.834;2023-08-08T06:52:57;3.22;;;2.53;;
75935;SDS011;64614;32.062;34.834;2023-08-08T06:55:22;5.15;;;2.60;;
75935;SDS011;64614;32.062;34.834;2023-08-08T06:57:49;3.70;;;2.50;;
75935;SDS011;64614;32.062;34.834;2023-08-08T07:00:14;3.13;;;2.30;;
75935;SDS011;64614;32.062;34.834;2023-08-08T07:02:41;5.07;;;2.72;;
75935;SDS011;64614;32.062;34.834;2023-08-08T07:05:07;4.18;;;2.33;;
75935;SDS011;64614;32.062;34.834;2023-08-08T07:07:35;4.80;;;2.55;;
75935;SDS011;64614;32.062;34.834;2023-08-08T07:10:00;3.30;;;2.10;;
75935;SDS011;64614;32.062;34.834;2023-08-08T07:12:26;3.55;;;2.38;;
75935;SDS011;64614;32.062;34.834;2023-08-08T07:14:51;4.32;;;2.60;;
75935;SDS011;64614;32.062;34.834;2023-08-08T07:17:17;3.28;;;2.22;;
75935;SDS011;64614;32.062;34.834;2023-08-08T07:19:43;4.57;;;2.30;;
75935;SDS011;64614;32.062;34.834;2023-08-08T07:22:08;3.40;;;2.28;;
75935;SDS011;64614;32.062;34.834;2023-08-08T07:24:34;3.60;;;2.50;;
75935;SDS011;64614;32.062;34.834;2023-08-08T07:27:03;3.65;;;2.40;;
75935;SDS011;64614;32.062;34.834;2023-08-08T07:29:29;3.88;;;2.55;;
75935;SDS011;64614;32.062;34.834;2023-08-08T07:31:57;3.95;;;2.40;;
75935;SDS011;64614;32.062;34.834;2023-08-08T07:34:23;3.95;;;2.50;;
75935;SDS011;64614;32.062;34.834;2023-08-08T07:36:50;3.85;;;2.25;;
75935;SDS011;64614;32.062;34.834;2023-08-08T07:39:16;3.35;;;2.50;;
75935;SDS011;64614;32.062;34.834;2023-08-08T07:41:41;3.40;;;2.30;;
75935;SDS011;64614;32.062;34.834;2023-08-08T07:44:07;3.63;;;2.38;;
75935;SDS011;64614;32.062;34.834;2023-08-08T07:46:33;3.95;;;2.30;;
75935;SDS011;64614;32.062;34.834;2023-08-08T07:48:58;4.03;;;2.25;;
75935;SDS011;64614;32.062;34.834;2023-08-08T07:51:28;3.63;;;2.10;;
75935;SDS011;64614;32.062;34.834;2023-08-08T07:53:54;3.63;;;2.35;;
75935;SDS011;64614;32.062;34.834;2023-08-08T07:56:19;3.33;;;2.10;;
75935;SDS011;64614;32.062;34.834;2023-08-08T07:58:45;3.45;;;2.35;;
75935;SDS011;64614;32.062;34.834;2023-08-08T08:01:11;2.92;;;2.05;;
75935;SDS011;64614;32.062;34.834;2023-08-08T08:03:38;3.42;;;2.22;;
75935;SDS011;64614;32.062;34.834;2023-08-08T08:06:05;3.50;;;2.22;;
75935;SDS011;64614;32.062;34.834;2023-08-08T08:08:30;3.80;;;2.42;;
75935;SDS011;64614;32.062;34.834;2023-08-08T08:10:56;3.33;;;2.13;;
75935;SDS011;64614;32.062;34.834;2023-08-08T08:13:22;3.42;;;2.10;;
75935;SDS011;64614;32.062;34.834;2023-08-08T08:15:47;3.50;;;2.30;;
75935;SDS011;64614;32.062;34.834;2023-08-08T08:18:13;3.30;;;2.30;;
75935;SDS011;64614;32.062;34.834;2023-08-08T08:20:42;3.17;;;2.28;;
75935;SDS011;64614;32.062;34.834;2023-08-08T08:23:09;3.15;;;2.13;;
75935;SDS011;64614;32.062;34.834;2023-08-08T08:25:35;3.58;;;2.25;;
75935;SDS011;64614;32.062;34.834;2023-08-08T08:28:00;3.47;;;2.33;;
75935;SDS011;64614;32.062;34.834;2023-08-08T08:30:26;4.18;;;2.40;;
75935;SDS011;64614;32.062;34.834;2023-08-08T08:32:52;3.45;;;2.40;;
75935;SDS011;64614;32.062;34.834;2023-08-08T08:35:18;3.00;;;2.00;;
75935;SDS011;64614;32.062;34.834;2023-08-08T08:37:44;3.55;;;2.20;;
75935;SDS011;64614;32.062;34.834;2023-08-08T08:40:10;3.50;;;2.00;;
75935;SDS011;64614;32.062;34.834;2023-08-08T08:42:36;3.22;;;2.03;;
75935;SDS011;64614;32.062;34.834;2023-08-08T08:45:04;3.13;;;2.17;;
75935;SDS011;64614;32.062;34.834;2023-08-08T08:47:31;3.35;;;2.10;;
75935;SDS011;64614;32.062;34.834;2023-08-08T08:49:58;2.60;;;2.10;;
75935;SDS011;64614;32.062;34.834;2023-08-08T08:52:24;2.75;;;2.20;;
75935;SDS011;64614;32.062;34.834;2023-08-08T08:54:50;3.83;;;2.13;;
75935;SDS011;64614;32.062;34.834;2023-08-08T08:57:17;3.63;;;1.90;;
75935;SDS011;64614;32.062;34.834;2023-08-08T08:59:44;2.90;;;2.00;;
75935;SDS011;64614;32.062;34.834;2023-08-08T09:02:10;2.40;;;2.00;;
75935;SDS011;64614;32.062;34.834;2023-08-08T09:04:36;3.40;;;2.15;;
75935;SDS011;64614;32.062;34.834;2023-08-08T09:07:02;3.08;;;2.10;;
75935;SDS011;64614;32.062;34.834;2023-08-08T09:09:32;3.88;;;2.17;;
75935;SDS011;64614;32.062;34.834;2023-08-08T09:11:57;2.42;;;1.73;;
75935;SDS011;64614;32.062;34.834;2023-08-08T09:14:24;3.38;;;2.10;;
75935;SDS011;64614;32.062;34.834;2023-08-08T09:16:51;2.65;;;2.00;;
75935;SDS011;64614;32.062;34.834;2023-08-08T09:19:21;3.67;;;2.10;;
75935;SDS011;64614;32.062;34.834;2023-08-08T09:21:48;2.78;;;2.10;;
75935;SDS011;64614;32.062;34.834;2023-08-08T09:24:15;3.30;;;2.20;;
75935;SDS011;64614;32.062;34.834;2023-08-08T09:26:41;2.35;;;2.00;;
75935;SDS011;64614;32.062;34.834;2023-08-08T09:29:08;4.32;;;2.22;;
75935;SDS011;64614;32.062;34.834;2023-08-08T09:31:35;3.33;;;2.08;;
75935;SDS011;64614;32.062;34.834;2023-08-08T09:34:01;2.65;;;2.00;;
75935;SDS011;64614;32.062;34.834;2023-08-08T09:36:28;3.53;;;2.10;;
75935;SDS011;64614;32.062;34.834;2023-08-08T09:38:54;3.05;;;2.03;;
75935;SDS011;64614;32.062;34.834;2023-08-08T09:41:21;3.33;;;2.10;;
75935;SDS011;64614;32.062;34.834;2023-08-08T09:43:48;3.85;;;2.00;;
75935;SDS011;64614;32.062;34.834;2023-08-08T09:46:14;3.03;;;2.10;;
75935;SDS011;64614;32.062;34.834;2023-08-08T09:51:09;2.45;;;1.85;;
75935;SDS011;64614;32.062;34.834;2023-08-08T09:53:35;2.35;;;2.00;;
75935;SDS011;64614;32.062;34.834;2023-08-08T09:56:01;3.15;;;1.80;;
75935;SDS011;64614;32.062;34.834;2023-08-08T09:58:29;2.83;;;2.00;;
75935;SDS011;64614;32.062;34.834;2023-08-08T10:00:55;3.83;;;2.20;;
75935;SDS011;64614;32.062;34.834;2023-08-08T10:03:21;2.58;;;1.90;;
75935;SDS011;64614;32.062;34.834;2023-08-08T10:05:47;2.97;;;2.00;;
75935;SDS011;64614;32.062;34.834;2023-08-08T10:08:16;2.58;;;1.90;;
75935;SDS011;64614;32.062;34.834;2023-08-08T10:10:45;3.15;;;2.00;;
75935;SDS011;64614;32.062;34.834;2023-08-08T10:13:25;3.00;;;2.08;;
75935;SDS011;64614;32.062;34.834;2023-08-08T10:15:52;3.13;;;2.13;;
75935;SDS011;64614;32.062;34.834;2023-08-08T10:18:21;2.75;;;1.88;;
75935;SDS011;64614;32.062;34.834;2023-08-08T10:20:48;3.40;;;2.03;;
75935;SDS011;64614;32.062;34.834;2023-08-08T10:23:18;3.25;;;2.10;;
75935;SDS011;64614;32.062;34.834;2023-08-08T10:25:44;2.50;;;1.90;;
75935;SDS011;64614;32.062;34.834;2023-08-08T10:28:11;3.83;;;2.17;;
75935;SDS011;64614;32.062;34.834;2023-08-08T10:30:46;2.80;;;1.90;;
75935;SDS011;64614;32.062;34.834;2023-08-08T10:33:22;3.60;;;2.00;;
75935;SDS011;64614;32.062;34.834;2023-08-08T10:36:10;2.80;;;2.00;;
75935;SDS011;64614;32.062;34.834;2023-08-08T10:38:39;3.10;;;1.92;;
75935;SDS011;64614;32.062;34.834;2023-08-08T10:41:08;2.58;;;1.85;;
75935;SDS011;64614;32.062;34.834;2023-08-08T10:43:36;3.53;;;2.10;;
75935;SDS011;64614;32.062;34.834;2023-08-08T10:46:02;2.85;;;1.90;;
75935;SDS011;64614;32.062;34.834;2023-08-08T10:48:28;2.45;;;1.80;;
75935;SDS011;64614;32.062;34.834;2023-08-08T10:50:57;2.88;;;1.70;;
75935;SDS011;64614;32.062;34.834;2023-08-08T10:53:27;3.13;;;1.80;;
75935;SDS011;64614;32.062;34.834;2023-08-08T10:56:01;2.45;;;2.00;;
75935;SDS011;64614;32.062;34.834;2023-08-08T10:58:34;3.20;;;2.05;;
75935;SDS011;64614;32.062;34.834;2023-08-08T11:01:02;2.80;;;1.80;;
75935;SDS011;64614;32.062;34.834;2023-08-08T11:03:30;3.35;;;1.77;;
75935;SDS011;64614;32.062;34.834;2023-08-08T11:05:56;2.45;;;1.70;;
75935;SDS011;64614;32.062;34.834;2023-08-08T11:08:21;3.13;;;1.80;;
75935;SDS011;64614;32.062;34.834;2023-08-08T11:10:50;2.58;;;1.80;;
75935;SDS011;64614;32.062;34.834;2023-08-08T11:13:17;2.92;;;1.90;;
75935;SDS011;64614;32.062;34.834;2023-08-08T11:15:43;2.95;;;1.73;;
75935;SDS011;64614;32.062;34.834;2023-08-08T11:18:09;2.97;;;1.80;;
75935;SDS011;64614;32.062;34.834;2023-08-08T11:20:35;3.97;;;2.17;;
75935;SDS011;64614;32.062;34.834;2023-08-08T11:23:02;3.55;;;1.88;;
75935;SDS011;64614;32.062;34.834;2023-08-08T11:25:30;2.60;;;1.90;;
75935;SDS011;64614;32.062;34.834;2023-08-08T11:27:57;3.08;;;1.88;;
75935;SDS011;64614;32.062;34.834;2023-08-08T11:30:24;2.88;;;1.70;;
75935;SDS011;64614;32.062;34.834;2023-08-08T11:33:03;2.38;;;1.60;;
75935;SDS011;64614;32.062;34.834;2023-08-08T11:35:29;2.95;;;1.80;;
75935;SDS011;64614;32.062;34.834;2023-08-08T11:37:56;2.15;;;1.60;;
75935;SDS011;64614;32.062;34.834;2023-08-08T11:40:23;3.38;;;1.88;;
75935;SDS011;64614;32.062;34.834;2023-08-08T11:42:52;2.88;;;1.90;;
75935;SDS011;64614;32.062;34.834;2023-08-08T11:45:19;3.40;;;1.75;;
75935;SDS011;64614;32.062;34.834;2023-08-08T11:47:49;2.33;;;1.63;;
75935;SDS011;64614;32.062;34.834;2023-08-08T11:50:15;2.58;;;1.70;;
75935;SDS011;64614;32.062;34.834;2023-08-08T11:52:44;2.13;;;1.45;;
75935;SDS011;64614;32.062;34.834;2023-08-08T11:55:11;2.85;;;1.80;;
75935;SDS011;64614;32.062;34.834;2023-08-08T11:57:37;2.80;;;1.70;;
75935;SDS011;64614;32.062;34.834;2023-08-08T12:00:05;2.70;;;1.90;;
75935;SDS011;64614;32.062;34.834;2023-08-08T12:02:33;2.08;;;1.60;;
75935;SDS011;64614;32.062;34.834;2023-08-08T12:05:09;2.00;;;1.50;;
75935;SDS011;64614;32.062;34.834;2023-08-08T12:07:39;2.38;;;1.65;;
75935;SDS011;64614;32.062;34.834;2023-08-08T12:10:13;2.70;;;1.77;;
75935;SDS011;64614;32.062;34.834;2023-08-08T12:12:44;3.33;;;1.80;;
75935;SDS011;64614;32.062;34.834;2023-08-08T12:15:10;2.55;;;1.60;;
75935;SDS011;64614;32.062;34.834;2023-08-08T12:17:36;2.05;;;1.35;;
75935;SDS011;64614;32.062;34.834;2023-08-08T12:20:03;2.72;;;1.90;;
75935;SDS011;64614;32.062;34.834;2023-08-08T12:22:31;3.10;;;1.85;;
75935;SDS011;64614;32.062;34.834;2023-08-08T12:24:57;2.03;;;1.60;;
75935;SDS011;64614;32.062;34.834;2023-08-08T12:27:22;1.92;;;1.50;;
75935;SDS011;64614;32.062;34.834;2023-08-08T12:29:48;2.20;;;1.50;;
75935;SDS011;64614;32.062;34.834;2023-08-08T12:32:14;2.75;;;1.65;;
75935;SDS011;64614;32.062;34.834;2023-08-08T12:34:39;1.80;;;1.40;;
75935;SDS011;64614;32.062;34.834;2023-08-08T12:37:05;1.83;;;1.35;;
75935;SDS011;64614;32.062;34.834;2023-08-08T12:39:31;1.95;;;1.60;;
75935;SDS011;64614;32.062;34.834;2023-08-08T12:41:56;2.70;;;1.70;;
75935;SDS011;64614;32.062;34.834;2023-08-08T12:44:22;2.30;;;1.50;;
75935;SDS011;64614;32.062;34.834;2023-08-08T12:46:48;2.40;;;1.45;;
75935;SDS011;64614;32.062;34.834;2023-08-08T12:49:14;2.08;;;1.60;;
75935;SDS011;64614;32.062;34.834;2023-08-08T12:51:39;1.88;;;1.58;;
75935;SDS011;64614;32.062;34.834;2023-08-08T12:54:05;2.60;;;1.70;;
75935;SDS011;64614;32.062;34.834;2023-08-08T12:56:31;1.92;;;1.60;;
75935;SDS011;64614;32.062;34.834;2023-08-08T12:58:57;2.17;;;1.50;;
75935;SDS011;64614;32.062;34.834;2023-08-08T13:01:22;1.63;;;1.30;;
75935;SDS011;64614;32.062;34.834;2023-08-08T13:03:50;1.85;;;1.40;;
75935;SDS011;64614;32.062;34.834;2023-08-08T13:06:16;2.65;;;1.70;;
75935;SDS011;64614;32.062;34.834;2023-08-08T13:08:41;1.95;;;1.40;;
75935;SDS011;64614;32.062;34.834;2023-08-08T13:11:07;3.08;;;1.60;;
75935;SDS011;64614;32.062;34.834;2023-08-08T13:13:33;2.50;;;1.50;;
75935;SDS011;64614;32.062;34.834;2023-08-08T13:15:59;1.67;;;1.40;;
75935;SDS011;64614;32.062;34.834;2023-08-08T13:18:25;2.58;;;1.45;;
75935;SDS011;64614;32.062;34.834;2023-08-08T13:20:51;2.80;;;1.60;;
75935;SDS011;64614;32.062;34.834;2023-08-08T13:23:17;1.85;;;1.33;;
75935;SDS011;64614;32.062;34.834;2023-08-08T13:25:43;2.08;;;1.45;;
75935;SDS011;64614;32.062;34.834;2023-08-08T13:28:09;2.35;;;1.58;;
75935;SDS011;64614;32.062;34.834;2023-08-08T13:30:35;2.20;;;1.60;;
75935;SDS011;64614;32.062;34.834;2023-08-08T13:33:01;1.63;;;1.50;;
75935;SDS011;64614;32.062;34.834;2023-08-08T13:35:27;2.03;;;1.50;;
75935;SDS011;64614;32.062;34.834;2023-08-08T13:37:52;1.60;;;1.40;;
75935;SDS011;64614;32.062;34.834;2023-08-08T13:40:19;2.17;;;1.60;;
75935;SDS011;64614;32.062;34.834;2023-08-08T13:42:45;2.65;;;1.50;;
75935;SDS011;64614;32.062;34.834;2023-08-08T13:45:17;2.10;;;1.50;;
75935;SDS011;64614;32.062;34.834;2023-08-08T13:47:44;1.88;;;1.52;;
75935;SDS011;64614;32.062;34.834;2023-08-08T13:50:10;2.40;;;1.50;;
75935;SDS011;64614;32.062;34.834;2023-08-08T13:52:38;2.05;;;1.55;;
75935;SDS011;64614;32.062;34.834;2023-08-08T13:55:04;2.05;;;1.40;;
75935;SDS011;64614;32.062;34.834;2023-08-08T13:57:31;2.28;;;1.48;;
75935;SDS011;64614;32.062;34.834;2023-08-08T13:59:56;1.58;;;1.48;;
75935;SDS011;64614;32.062;34.834;2023-08-08T14:02:22;2.25;;;1.40;;
75935;SDS011;64614;32.062;34.834;2023-08-08T14:04:48;2.92;;;1.58;;
75935;SDS011;64614;32.062;34.834;2023-08-08T14:07:14;2.20;;;1.40;;
75935;SDS011;64614;32.062;34.834;2023-08-08T14:09:39;2.40;;;1.50;;
75935;SDS011;64614;32.062;34.834;2023-08-08T14:12:05;2.20;;;1.52;;
75935;SDS011;64614;32.062;34.834;2023-08-08T14:14:31;3.05;;;1.60;;
75935;SDS011;64614;32.062;34.834;2023-08-08T14:16:57;2.13;;;1.60;;
75935;SDS011;64614;32.062;34.834;2023-08-08T14:19:23;2.33;;;1.40;;
75935;SDS011;64614;32.062;34.834;2023-08-08T14:21:49;1.88;;;1.50;;
75935;SDS011;64614;32.062;34.834;2023-08-08T14:24:14;2.55;;;1.40;;
75935;SDS011;64614;32.062;34.834;2023-08-08T14:26:40;2.17;;;1.55;;
75935;SDS011;64614;32.062;34.834;2023-08-08T14:29:06;2.15;;;1.55;;
75935;SDS011;64614;32.062;34.834;2023-08-08T14:31:31;2.53;;;1.50;;
75935;SDS011;64614;32.062;34.834;2023-08-08T14:33:57;2.42;;;1.40;;
75935;SDS011;64614;32.062;34.834;2023-08-08T14:36:23;2.00;;;1.30;;
75935;SDS011;64614;32.062;34.834;2023-08-08T14:38:48;2.35;;;1.67;;